createdAt,value
2024-02-13T00:01:42.696Z,7.80
2024-02-13T00:06:48.643Z,7.70
2024-02-13T00:11:55.762Z,7.60
2024-02-13T00:16:59.461Z,7.60
2024-02-13T00:22:02.187Z,7.70
2024-02-13T00:27:06.899Z,7.70
2024-02-13T00:32:09.630Z,7.50
2024-02-13T00:37:12.381Z,7.30
2024-02-13T00:42:16.560Z,7.20
2024-02-13T00:47:20.437Z,7.10
2024-02-13T00:52:23.230Z,7.10
2024-02-13T00:57:30.171Z,7.00
2024-02-13T01:02:33.063Z,7.00
2024-02-13T01:07:36.762Z,7.00
2024-02-13T01:12:41.089Z,6.90
2024-02-13T01:17:43.875Z,6.90
2024-02-13T01:22:47.492Z,6.90
2024-02-13T01:27:52.069Z,6.80
2024-02-13T01:32:55.616Z,6.50
2024-02-13T01:37:58.974Z,6.30
2024-02-13T01:43:04.033Z,6.10
2024-02-13T01:48:11.659Z,6.00
2024-02-13T01:53:17.080Z,6.10
2024-02-13T01:58:21.876Z,6.00
2024-02-13T02:03:24.941Z,6.00
2024-02-13T02:08:28.853Z,5.90
2024-02-13T02:13:34.427Z,5.70
2024-02-13T02:18:38.126Z,5.60
2024-02-13T02:23:41.374Z,5.50
2024-02-13T02:28:47.183Z,5.60
2024-02-13T02:33:50.904Z,5.60
2024-02-13T02:38:55.003Z,5.60
2024-02-13T02:44:00.526Z,5.80
2024-02-13T02:49:03.990Z,6.00
2024-02-13T02:54:08.437Z,6.30
2024-02-13T02:59:14.251Z,6.40
2024-02-13T03:04:17.981Z,6.50
2024-02-13T03:09:21.501Z,6.80
2024-02-13T03:14:26.579Z,6.80
2024-02-13T03:19:29.793Z,6.80
2024-02-13T03:24:33.950Z,6.80
2024-02-13T03:29:39.428Z,6.90
2024-02-13T03:34:42.636Z,6.90
2024-02-13T03:39:46.373Z,6.90
2024-02-13T03:44:51.039Z,6.90
2024-02-13T03:49:54.530Z,7.00
2024-02-13T03:54:58.529Z,7.20
2024-02-13T04:00:02.657Z,7.20
2024-02-13T04:05:06.164Z,7.10
2024-02-13T04:10:10.011Z,7.10
2024-02-13T04:15:14.917Z,7.10
2024-02-13T04:20:18.294Z,7.10
2024-02-13T04:25:21.209Z,7.10
2024-02-13T04:30:25.428Z,7.00
2024-02-13T04:35:28.220Z,7.00
2024-02-13T04:40:31.168Z,7.00
2024-02-13T04:45:35.975Z,6.90
2024-02-13T04:50:38.721Z,6.90
2024-02-13T04:55:41.520Z,6.90
2024-02-13T05:00:52.523Z,6.80
2024-02-13T05:06:13.165Z,6.60
2024-02-13T05:11:16.399Z,6.50
2024-02-13T05:16:20.891Z,6.60
2024-02-13T05:21:25.096Z,6.50
2024-02-13T05:26:28.011Z,6.40
2024-02-13T05:31:32.381Z,6.50
2024-02-13T05:36:35.337Z,6.50
2024-02-13T05:41:38.581Z,6.40
2024-02-13T05:46:43.464Z,6.50
2024-02-13T05:51:46.631Z,6.60
2024-02-13T05:56:50.047Z,6.60
2024-02-13T06:01:54.342Z,6.60
2024-02-13T06:06:57.297Z,6.70
2024-02-13T06:12:00.246Z,6.70
2024-02-13T06:17:04.466Z,6.70
2024-02-13T06:22:07.216Z,6.80
2024-02-13T06:27:10.248Z,6.80
2024-02-13T06:32:15.002Z,6.80
2024-02-13T06:37:17.780Z,6.70
2024-02-13T06:42:20.999Z,6.80
2024-02-13T06:47:27.698Z,6.80
2024-02-13T06:52:30.929Z,6.80
2024-02-13T06:57:35.990Z,6.80
2024-02-13T07:02:40.112Z,6.70
2024-02-13T07:07:47.544Z,6.80
2024-02-13T07:12:52.473Z,6.90
2024-02-13T07:18:08.247Z,6.90
2024-02-13T07:23:12.282Z,7.00
2024-02-13T07:28:15.886Z,7.00
2024-02-13T07:33:20.163Z,7.00
2024-02-13T07:38:25.723Z,7.10
2024-02-13T07:43:28.661Z,7.10
2024-02-13T07:48:39.419Z,7.10
2024-02-13T07:53:44.835Z,7.10
2024-02-13T07:58:47.664Z,7.20
2024-02-13T08:03:52.097Z,7.60
2024-02-13T08:08:54.916Z,8.00
2024-02-13T08:13:59.178Z,8.10
2024-02-13T08:19:05.556Z,8.10
2024-02-13T08:24:09.356Z,8.10
2024-02-13T08:29:12.402Z,8.10
2024-02-13T08:34:16.941Z,8.10
2024-02-13T08:39:19.982Z,8.20
2024-02-13T08:44:23.076Z,8.50
2024-02-13T08:49:27.255Z,8.60
2024-02-13T08:54:30.109Z,8.90
2024-02-13T08:59:37.882Z,9.20
2024-02-13T09:04:42.863Z,9.60
2024-02-13T09:09:46.144Z,9.60
2024-02-13T09:14:51.168Z,9.80
2024-02-13T09:19:59.521Z,13.10
2024-02-13T09:25:02.443Z,17.00
2024-02-13T09:30:05.961Z,19.70
2024-02-13T09:35:11.519Z,19.90
2024-02-13T09:40:15.671Z,20.10
2024-02-13T09:45:19.006Z,17.40
2024-02-13T09:50:28.345Z,17.50
2024-02-13T09:55:33.458Z,15.50
2024-02-13T10:00:36.359Z,19.30
2024-02-13T10:05:41.697Z,20.30
2024-02-13T10:10:46.058Z,18.30
2024-02-13T10:21:42.905Z,14.20
2024-02-13T10:32:24.424Z,11.60
2024-02-13T10:37:53.923Z,11.40
2024-02-13T10:43:04.622Z,10.80
2024-02-13T10:48:39.504Z,10.80
2024-02-13T10:54:00.003Z,11.40
2024-02-13T11:10:54.792Z,10.20
2024-02-13T11:16:09.424Z,13.70
2024-02-13T11:21:32.941Z,21.20
2024-02-13T11:26:45.405Z,25.10
2024-02-13T11:32:00.874Z,24.60
2024-02-13T11:37:31.753Z,19.60
2024-02-13T11:42:47.568Z,21.30
2024-02-13T11:47:59.092Z,23.80
2024-02-13T11:53:06.243Z,23.30
2024-02-13T11:58:32.921Z,24.10
2024-02-13T12:03:39.289Z,25.10
2024-02-13T12:08:51.600Z,25.80
2024-02-13T12:13:58.972Z,26.50
2024-02-13T12:19:24.207Z,24.80
2024-02-13T12:24:27.896Z,22.10
2024-02-13T12:29:32.428Z,20.00
2024-02-13T12:34:42.011Z,20.90
2024-02-13T12:39:46.634Z,26.10
2024-02-13T12:44:51.499Z,27.10
2024-02-13T12:49:54.412Z,22.30
2024-02-13T12:54:58.651Z,18.20
2024-02-13T13:00:05.977Z,22.50
2024-02-13T13:05:14.132Z,25.20
2024-02-13T13:10:20.773Z,24.70
2024-02-13T13:15:27.223Z,24.00
2024-02-13T13:20:30.223Z,24.40
2024-02-13T13:25:35.984Z,24.60
2024-02-13T13:30:41.904Z,25.20
2024-02-13T13:35:47.548Z,24.20
2024-02-13T13:40:50.797Z,21.60
2024-02-13T13:45:56.564Z,21.90
2024-02-13T13:50:59.959Z,22.60
2024-02-13T13:56:02.958Z,22.10
2024-02-13T14:01:07.787Z,18.90
2024-02-13T14:06:10.564Z,20.20
2024-02-13T14:11:13.359Z,22.10
2024-02-13T14:16:19.462Z,23.70
2024-02-13T14:21:24.362Z,23.60
2024-02-13T14:26:27.430Z,22.80
2024-02-13T14:31:32.072Z,20.80
2024-02-13T14:36:35.737Z,19.30
2024-02-13T14:41:39.811Z,19.10
2024-02-13T14:46:43.882Z,19.40
2024-02-13T14:51:46.622Z,19.10
2024-02-13T14:56:50.698Z,17.60
2024-02-13T15:01:55.734Z,16.90
2024-02-13T15:07:00.398Z,16.10
2024-02-13T15:12:04.415Z,15.00
2024-02-13T15:17:09.182Z,15.00
2024-02-13T15:22:13.390Z,14.30
2024-02-13T15:27:16.456Z,13.50
2024-02-13T15:32:20.726Z,13.40
2024-02-13T15:37:43.616Z,13.20
2024-02-13T15:43:03.909Z,12.80
2024-02-13T15:48:08.790Z,12.50
2024-02-13T15:53:13.057Z,12.20
2024-02-13T15:58:16.502Z,11.40
2024-02-13T16:03:20.561Z,10.70
2024-02-13T16:08:25.497Z,10.00
2024-02-13T16:13:30.566Z,9.50
2024-02-13T16:18:36.258Z,9.10
2024-02-13T16:23:41.056Z,8.90
2024-02-13T16:28:43.825Z,8.50
2024-02-13T16:33:51.387Z,8.60
2024-02-13T16:38:54.504Z,8.30
2024-02-13T16:44:00.546Z,8.00
2024-02-13T16:49:04.797Z,7.80
2024-02-13T16:54:08.374Z,7.70
2024-02-13T16:59:11.353Z,8.00
2024-02-13T17:04:18.140Z,7.90
2024-02-13T17:09:22.971Z,7.90
2024-02-13T17:14:26.373Z,7.90
2024-02-13T17:19:32.415Z,8.00
2024-02-13T17:24:37.428Z,7.80
2024-02-13T17:29:40.996Z,7.70
2024-02-13T17:34:45.475Z,7.70
2024-02-13T17:39:48.142Z,7.60
2024-02-13T17:44:50.904Z,7.30
2024-02-13T17:49:55.086Z,7.40
2024-02-13T17:54:58.625Z,7.40
2024-02-13T18:00:04.230Z,7.20
2024-02-13T18:05:09.628Z,7.10
2024-02-13T18:10:12.597Z,6.90
2024-02-13T18:15:15.864Z,6.80
2024-02-13T18:20:20.637Z,6.70
2024-02-13T18:25:26.098Z,6.30
2024-02-13T18:30:29.267Z,5.90
2024-02-13T18:35:33.876Z,5.80
2024-02-13T18:40:36.648Z,5.70
2024-02-13T18:45:39.644Z,5.70
2024-02-13T18:50:44.087Z,5.90
2024-02-13T18:55:48.320Z,5.60
2024-02-13T19:00:51.648Z,5.30
2024-02-13T19:05:56.270Z,5.30
2024-02-13T19:10:59.645Z,5.30
2024-02-13T19:16:02.894Z,5.40
2024-02-13T19:21:08.054Z,5.10
2024-02-13T19:26:10.756Z,5.00
2024-02-13T19:31:18.426Z,5.10
2024-02-13T19:36:27.522Z,5.00
2024-02-13T19:41:32.219Z,4.90
2024-02-13T19:46:35.078Z,5.20
2024-02-13T19:51:39.407Z,5.10
2024-02-13T19:56:42.331Z,5.10
2024-02-13T20:01:45.327Z,4.90
2024-02-13T20:06:50.860Z,4.70
2024-02-13T20:11:53.817Z,4.90
2024-02-13T20:16:56.621Z,4.80
2024-02-13T20:22:00.891Z,4.60
2024-02-13T20:27:04.341Z,4.60
2024-02-13T20:32:07.604Z,4.60
2024-02-13T20:37:12.252Z,4.70
2024-02-13T20:42:14.984Z,4.40
2024-02-13T20:47:31.661Z,4.30
2024-02-13T20:52:35.970Z,4.10
2024-02-13T20:57:41.401Z,4.00
2024-02-13T21:02:44.742Z,4.00
2024-02-13T21:07:48.850Z,4.00
2024-02-13T21:12:51.810Z,3.90
2024-02-13T21:17:54.616Z,4.10
2024-02-13T21:23:17.097Z,4.10
2024-02-13T21:28:20.291Z,4.10
2024-02-13T21:33:24.127Z,3.70
2024-02-13T21:38:28.748Z,3.70
2024-02-13T21:43:31.511Z,3.80
2024-02-13T21:48:34.322Z,3.70
2024-02-13T21:53:38.443Z,3.70
2024-02-13T21:58:41.276Z,3.50
2024-02-13T22:03:44.262Z,3.50
2024-02-13T22:08:48.370Z,3.60
2024-02-13T22:13:51.505Z,3.50
2024-02-13T22:18:55.462Z,3.20
2024-02-13T22:24:02.398Z,3.00
2024-02-13T22:47:42.146Z,3.00
2024-02-13T23:12:07.935Z,3.10
2024-02-13T23:17:16.784Z,2.90
2024-02-13T23:22:20.034Z,2.90
2024-02-13T23:27:24.253Z,2.90
2024-02-13T23:32:29.400Z,3.00
2024-02-13T23:37:33.388Z,2.80
2024-02-13T23:42:39.696Z,2.80
2024-02-13T23:47:43.991Z,2.80
2024-02-13T23:52:47.311Z,2.80
2024-02-13T23:57:51.818Z,2.70
